createdAt,value
2023-03-18T00:03:19.895Z,-1.49
2023-03-18T00:08:22.035Z,-1.54
2023-03-18T00:13:24.163Z,-1.60
2023-03-18T00:18:27.090Z,-1.67
2023-03-18T00:23:29.389Z,-1.76
2023-03-18T00:28:31.717Z,-1.72
2023-03-18T00:33:34.196Z,-1.73
2023-03-18T00:38:37.268Z,-1.76
2023-03-18T00:43:52.585Z,-1.79
2023-03-18T00:48:56.981Z,-1.84
2023-03-18T00:54:02.030Z,-1.87
2023-03-18T00:59:06.209Z,-1.92
2023-03-18T01:04:08.771Z,-1.94
2023-03-18T01:09:11.920Z,-1.99
2023-03-18T01:14:16.355Z,-2.02
2023-03-18T01:19:18.431Z,-2.02
2023-03-18T01:24:20.590Z,-2.03
2023-03-18T01:29:23.898Z,-2.04
2023-03-18T01:34:26.328Z,-2.04
2023-03-18T01:39:28.590Z,-2.00
2023-03-18T01:44:31.634Z,-1.95
2023-03-18T01:49:39.537Z,-1.93
2023-03-18T01:54:49.667Z,-2.02
2023-03-18T01:59:53.976Z,-2.06
2023-03-18T02:04:59.152Z,-2.03
2023-03-18T02:10:11.576Z,-1.99
2023-03-18T02:15:19.778Z,-1.91
2023-03-18T02:20:22.440Z,-1.89
2023-03-18T02:25:47.695Z,-1.77
2023-03-18T02:30:54.764Z,-1.65
2023-03-18T02:36:03.432Z,-1.60
2023-03-18T02:41:23.811Z,-1.67
2023-03-18T02:46:36.438Z,-1.63
2023-03-18T02:51:38.809Z,-1.65
2023-03-18T02:56:42.782Z,-1.68
2023-03-18T03:01:47.786Z,-1.73
2023-03-18T03:06:51.290Z,-1.70
2023-03-18T03:11:59.384Z,-1.66
2023-03-18T03:17:02.762Z,-1.67
2023-03-18T03:22:05.407Z,-1.68
2023-03-18T03:27:07.745Z,-1.73
2023-03-18T03:32:10.111Z,-1.75
2023-03-18T03:37:12.308Z,-1.79
2023-03-18T03:42:14.601Z,-1.77
2023-03-18T03:47:18.237Z,-1.77
2023-03-18T03:52:20.493Z,-1.77
2023-03-18T03:57:24.497Z,-1.74
2023-03-18T04:02:27.699Z,-1.69
2023-03-18T04:07:31.460Z,-1.66
2023-03-18T04:12:34.524Z,-1.59
2023-03-18T04:17:37.074Z,-1.55
2023-03-18T04:22:39.719Z,-1.50
2023-03-18T04:27:44.389Z,-1.45
2023-03-18T04:32:48.710Z,-1.43
2023-03-18T04:37:51.564Z,-1.35
2023-03-18T04:42:54.549Z,-1.25
2023-03-18T04:48:01.069Z,-1.14
2023-03-18T04:53:06.768Z,-0.99
2023-03-18T04:58:09.354Z,-0.39
2023-03-18T05:03:16.324Z,0.99
2023-03-18T05:08:18.749Z,2.28
2023-03-18T05:13:21.995Z,3.43
2023-03-18T05:18:24.462Z,4.31
2023-03-18T05:23:29.565Z,4.80
2023-03-18T05:28:34.266Z,5.56
2023-03-18T05:33:46.893Z,6.52
2023-03-18T05:38:49.878Z,7.40
2023-03-18T05:43:52.533Z,8.22
2023-03-18T05:48:55.343Z,8.86
2023-03-18T05:54:00.703Z,8.98
2023-03-18T05:59:07.813Z,9.71
2023-03-18T06:04:19.423Z,9.79
2023-03-18T06:09:22.475Z,10.09
2023-03-18T06:14:29.366Z,10.61
2023-03-18T06:19:35.480Z,11.97
2023-03-18T06:24:37.736Z,13.19
2023-03-18T06:29:41.763Z,14.38
2023-03-18T06:34:48.623Z,15.41
2023-03-18T06:39:51.828Z,15.41
2023-03-18T06:44:54.829Z,15.22
2023-03-18T06:50:05.990Z,16.17
2023-03-18T06:55:11.882Z,16.25
2023-03-18T07:00:18.185Z,16.81
2023-03-18T07:05:21.009Z,17.46
2023-03-18T07:10:27.442Z,18.84
2023-03-18T07:15:36.300Z,20.15
2023-03-18T07:20:38.686Z,20.94
2023-03-18T07:25:42.144Z,21.89
2023-03-18T07:30:45.128Z,23.48
2023-03-18T07:35:47.259Z,24.83
2023-03-18T07:40:49.326Z,25.82
2023-03-18T07:45:51.645Z,25.81
2023-03-18T07:50:53.810Z,26.19
2023-03-18T07:55:56.037Z,25.21
2023-03-18T08:00:59.916Z,24.80
2023-03-18T08:06:02.836Z,24.08
2023-03-18T08:11:05.073Z,24.08
2023-03-18T08:16:07.887Z,24.58
2023-03-18T08:21:10.776Z,25.13
2023-03-18T08:26:13.209Z,24.58
2023-03-18T08:31:15.460Z,24.73
2023-03-18T08:36:17.664Z,24.41
2023-03-18T08:41:19.963Z,25.34
2023-03-18T08:46:22.207Z,26.11
2023-03-18T08:51:24.378Z,25.37
2023-03-18T08:56:27.340Z,25.37
2023-03-18T09:01:31.396Z,25.36
2023-03-18T09:06:33.509Z,25.09
2023-03-18T09:11:36.462Z,26.06
2023-03-18T09:16:38.554Z,26.58
2023-03-18T09:21:40.799Z,27.58
2023-03-18T09:26:42.869Z,25.86
2023-03-18T09:31:45.309Z,23.94
2023-03-18T09:36:51.249Z,22.64
2023-03-18T09:42:05.530Z,22.45
2023-03-18T09:47:44.701Z,23.98
2023-03-18T09:53:06.943Z,25.33
2023-03-18T09:58:36.473Z,26.28
2023-03-18T10:04:04.879Z,26.59
2023-03-18T10:09:31.949Z,27.02
2023-03-18T10:14:37.402Z,24.92
2023-03-18T10:19:48.240Z,24.37
2023-03-18T10:24:59.769Z,25.23
2023-03-18T10:30:13.555Z,24.59
2023-03-18T10:35:31.421Z,26.52
2023-03-18T10:40:39.846Z,28.20
2023-03-18T10:45:43.407Z,27.85
2023-03-18T10:51:31.631Z,29.93
2023-03-18T10:56:35.938Z,29.46
2023-03-18T11:01:39.677Z,29.62
2023-03-18T11:07:01.767Z,30.10
2023-03-18T11:12:14.165Z,30.25
2023-03-18T11:17:37.285Z,29.99
2023-03-18T11:22:47.884Z,28.50
2023-03-18T11:27:59.366Z,27.38
2023-03-18T11:33:16.035Z,26.94
2023-03-18T11:38:28.758Z,25.52
2023-03-18T11:43:31.011Z,25.41
2023-03-18T11:48:41.268Z,25.63
2023-03-18T11:53:52.585Z,25.42
2023-03-18T11:58:54.752Z,26.73
2023-03-18T12:04:08.946Z,24.38
2023-03-18T12:09:23.300Z,23.63
2023-03-18T12:14:41.017Z,22.95
2023-03-18T12:20:07.037Z,23.13
2023-03-18T12:25:31.449Z,23.19
2023-03-18T12:31:10.732Z,23.96
2023-03-18T12:36:56.375Z,22.16
2023-03-18T12:42:13.727Z,21.08
2023-03-18T12:47:19.186Z,20.43
2023-03-18T12:52:30.657Z,20.67
2023-03-18T12:57:44.310Z,20.16
2023-03-18T13:02:49.726Z,19.65
2023-03-18T13:08:05.592Z,19.60
2023-03-18T13:13:10.568Z,18.79
2023-03-18T13:18:19.284Z,19.18
2023-03-18T13:23:32.957Z,19.21
2023-03-18T13:28:53.240Z,19.17
2023-03-18T13:34:19.110Z,19.33
2023-03-18T13:39:24.072Z,18.77
2023-03-18T13:44:38.226Z,17.89
2023-03-18T13:49:41.214Z,16.97
2023-03-18T13:54:43.447Z,16.65
2023-03-18T13:59:48.634Z,16.20
2023-03-18T14:04:52.137Z,15.55
2023-03-18T14:10:18.809Z,15.06
2023-03-18T14:15:30.059Z,14.07
2023-03-18T14:20:40.858Z,13.35
2023-03-18T14:25:44.037Z,12.18
2023-03-18T14:30:49.344Z,11.24
2023-03-18T14:35:57.310Z,10.53
2023-03-18T14:41:02.045Z,9.89
2023-03-18T14:46:13.321Z,9.40
2023-03-18T14:51:21.307Z,9.01
2023-03-18T14:56:25.965Z,8.49
2023-03-18T15:01:53.654Z,8.25
2023-03-18T15:07:00.655Z,7.80
2023-03-18T15:12:17.147Z,7.50
2023-03-18T15:17:19.346Z,7.31
2023-03-18T15:22:28.458Z,7.15
2023-03-18T15:27:34.065Z,7.06
2023-03-18T15:32:49.749Z,6.96
2023-03-18T15:38:10.257Z,6.75
2023-03-18T15:43:19.530Z,6.46
2023-03-18T15:48:33.344Z,6.33
2023-03-18T15:53:44.772Z,6.15
2023-03-18T15:58:59.730Z,6.03
2023-03-18T16:04:05.203Z,5.77
2023-03-18T16:09:19.204Z,5.76
2023-03-18T16:14:26.105Z,5.54
2023-03-18T16:19:29.106Z,5.38
2023-03-18T16:24:31.159Z,5.25
2023-03-18T16:29:37.598Z,5.16
2023-03-18T16:34:39.850Z,5.03
2023-03-18T16:39:42.284Z,4.91
2023-03-18T16:44:44.296Z,4.81
2023-03-18T16:49:46.214Z,5.09
2023-03-18T16:54:48.310Z,4.69
2023-03-18T16:59:55.871Z,4.40
2023-03-18T17:04:58.499Z,4.41
2023-03-18T17:10:01.567Z,4.28
2023-03-18T17:15:04.782Z,4.21
2023-03-18T17:20:22.160Z,4.27
2023-03-18T17:25:29.542Z,4.06
2023-03-18T17:30:41.181Z,4.07
2023-03-18T17:35:43.312Z,3.91
2023-03-18T17:40:47.692Z,3.87
2023-03-18T17:45:50.220Z,3.76
2023-03-18T17:50:58.670Z,3.73
2023-03-18T17:56:02.491Z,3.62
2023-03-18T18:01:12.653Z,3.57
2023-03-18T18:06:21.026Z,3.44
2023-03-18T18:11:26.601Z,3.27
2023-03-18T18:16:28.739Z,3.05
2023-03-18T18:21:31.273Z,2.93
2023-03-18T18:26:33.350Z,2.78
2023-03-18T18:31:35.854Z,2.68
2023-03-18T18:36:38.370Z,2.57
2023-03-18T18:41:40.595Z,2.48
2023-03-18T18:46:42.820Z,2.37
2023-03-18T18:51:45.028Z,2.26
2023-03-18T18:56:47.828Z,2.19
2023-03-18T19:01:51.482Z,2.19
2023-03-18T19:06:54.119Z,2.11
2023-03-18T19:11:56.604Z,1.97
2023-03-18T19:16:59.910Z,1.95
2023-03-18T19:22:03.056Z,1.87
2023-03-18T19:27:14.531Z,1.85
2023-03-18T19:32:19.114Z,1.81
2023-03-18T19:37:30.123Z,1.76
2023-03-18T19:42:33.868Z,1.53
2023-03-18T19:47:36.225Z,1.55
2023-03-18T19:52:38.313Z,1.49
2023-03-18T19:57:40.805Z,1.46
2023-03-18T20:02:43.866Z,1.44
2023-03-18T20:07:46.578Z,1.40
2023-03-18T20:12:51.611Z,1.43
2023-03-18T20:17:54.265Z,1.38
2023-03-18T20:22:59.580Z,1.40
2023-03-18T20:28:02.349Z,1.32
2023-03-18T20:33:05.810Z,1.33
2023-03-18T20:38:33.672Z,1.43
2023-03-18T20:43:35.744Z,1.29
2023-03-18T20:48:38.466Z,1.23
2023-03-18T20:53:40.601Z,1.28
2023-03-18T20:58:42.651Z,1.18
2023-03-18T21:03:45.100Z,1.24
2023-03-18T21:08:47.197Z,1.19
2023-03-18T21:13:49.469Z,1.17
2023-03-18T21:18:51.589Z,1.08
2023-03-18T21:23:54.461Z,1.06
2023-03-18T21:28:57.709Z,1.02
2023-03-18T21:34:01.153Z,0.98
2023-03-18T21:39:03.281Z,0.96
2023-03-18T21:44:05.407Z,0.92
2023-03-18T21:49:07.450Z,0.84
2023-03-18T21:54:19.024Z,0.88
2023-03-18T21:59:21.110Z,0.80
2023-03-18T22:04:23.257Z,0.72
2023-03-18T22:09:26.720Z,0.70
2023-03-18T22:14:28.717Z,0.62
2023-03-18T22:19:30.890Z,0.60
2023-03-18T22:24:32.919Z,0.57
2023-03-18T22:29:34.997Z,0.58
2023-03-18T22:34:37.310Z,0.60
2023-03-18T22:39:39.370Z,0.56
2023-03-18T22:44:41.473Z,0.48
2023-03-18T22:49:44.193Z,0.48
2023-03-18T22:54:47.680Z,0.42
2023-03-18T22:59:49.867Z,0.40
2023-03-18T23:04:53.959Z,0.33
2023-03-18T23:09:57.871Z,0.32
2023-03-18T23:15:00.002Z,0.26
2023-03-18T23:20:02.124Z,0.22
2023-03-18T23:25:05.749Z,0.19
2023-03-18T23:30:08.513Z,0.07
2023-03-18T23:35:11.685Z,0.06
2023-03-18T23:40:13.904Z,0.07
2023-03-18T23:45:16.314Z,0.01
2023-03-18T23:50:18.552Z,-0.07
2023-03-18T23:55:34.039Z,-0.12
